EmailTwitter


Observations de surface / Europe / LIRF (16242)

Régions: Québec | Canada | États-Unis | Europe | France | UK | Elsewhere
Station
Affichage
Infos & localisation pour LIRF (16242) | Aide pour décoder les METARs

Observations prises le 2017-06-26 à 04H50 UTC (LIRF)

Température: 23.0 Celsius

Point de rosée: 18.0 Celsius

Humidité relative: 73%

Indice Humidex: 29.

Vents: Est à 7 km/h ou 4 noeuds.

Pression au niveau moyen de la mer: 101.30 kilopascals.

Observation METAR:

LIRF 260450Z 08004KT CAVOK 23/18 Q1013 NOSIG=